createdAt,value
2022-11-29T00:01:29.062Z,5.40
2022-11-29T00:03:56.624Z,5.30
2022-11-29T00:06:35.464Z,5.40
2022-11-29T00:09:11.892Z,5.20
2022-11-29T00:12:03.714Z,5.20
2022-11-29T00:14:46.133Z,5.30
2022-11-29T00:17:15.659Z,5.40
2022-11-29T00:19:42.784Z,5.40
2022-11-29T00:22:09.724Z,5.40
2022-11-29T00:24:36.900Z,5.30
2022-11-29T00:27:04.021Z,5.20
2022-11-29T00:29:31.270Z,5.20
2022-11-29T00:31:58.409Z,5.20
2022-11-29T00:34:25.340Z,5.20
2022-11-29T00:36:52.317Z,5.10
2022-11-29T00:39:19.475Z,5.10
2022-11-29T00:41:46.766Z,5.10
2022-11-29T00:44:19.715Z,5.20
2022-11-29T00:46:57.852Z,5.20
2022-11-29T00:49:24.847Z,5.20
2022-11-29T00:51:51.822Z,5.20
2022-11-29T00:54:19.029Z,5.10
2022-11-29T00:56:46.023Z,5.10
2022-11-29T00:59:13.006Z,5.10
2022-11-29T01:01:40.113Z,5.10
2022-11-29T01:04:07.522Z,5.10
2022-11-29T01:06:34.532Z,5.10
2022-11-29T01:09:01.586Z,5.00
2022-11-29T01:11:29.175Z,5.10
2022-11-29T01:13:59.376Z,5.10
2022-11-29T01:16:27.609Z,5.10
2022-11-29T01:18:54.634Z,5.10
2022-11-29T01:21:25.658Z,5.10
2022-11-29T01:23:54.009Z,5.10
2022-11-29T01:26:24.103Z,5.00
2022-11-29T01:28:52.716Z,5.10
2022-11-29T01:31:29.750Z,5.10
2022-11-29T01:33:58.628Z,5.20
2022-11-29T01:36:26.366Z,5.20
2022-11-29T01:38:53.555Z,5.20
2022-11-29T01:41:23.605Z,5.30
2022-11-29T01:43:55.509Z,5.30
2022-11-29T01:46:22.703Z,5.30
2022-11-29T01:48:51.982Z,5.30
2022-11-29T01:51:19.215Z,5.20
2022-11-29T01:53:46.945Z,5.30
2022-11-29T01:56:15.521Z,5.20
2022-11-29T01:58:44.962Z,5.10
2022-11-29T02:01:12.557Z,5.20
2022-11-29T02:03:39.943Z,5.10
2022-11-29T02:06:07.859Z,5.10
2022-11-29T02:08:40.699Z,5.10
2022-11-29T02:11:07.571Z,5.10
2022-11-29T02:13:56.224Z,5.10
2022-11-29T02:16:42.540Z,5.10
2022-11-29T02:19:30.895Z,5.10
2022-11-29T02:22:25.676Z,5.00
2022-11-29T02:25:03.791Z,5.00
2022-11-29T02:27:52.123Z,5.00
2022-11-29T02:30:27.934Z,5.00
2022-11-29T02:33:32.211Z,4.90
2022-11-29T02:36:17.536Z,5.00
2022-11-29T02:39:07.144Z,4.90
2022-11-29T02:42:00.983Z,4.90
2022-11-29T02:44:49.531Z,4.90
2022-11-29T02:47:22.236Z,4.90
2022-11-29T02:50:02.542Z,4.90
2022-11-29T02:52:48.023Z,4.80
2022-11-29T02:55:18.089Z,4.80
2022-11-29T02:57:57.561Z,5.00
2022-11-29T03:00:25.045Z,4.90
2022-11-29T03:02:52.015Z,5.00
2022-11-29T03:05:33.973Z,4.90
2022-11-29T03:08:15.836Z,5.00
2022-11-29T03:11:12.084Z,5.00
2022-11-29T03:13:55.859Z,5.00
2022-11-29T03:16:25.754Z,5.00
2022-11-29T03:18:58.560Z,5.10
2022-11-29T03:21:31.370Z,5.00
2022-11-29T03:24:09.660Z,5.00
2022-11-29T03:26:44.086Z,5.00
2022-11-29T03:29:34.909Z,5.00
2022-11-29T03:32:07.891Z,5.00
2022-11-29T03:34:56.987Z,5.10
2022-11-29T03:37:51.791Z,5.10
2022-11-29T03:40:24.581Z,5.20
2022-11-29T03:42:59.177Z,5.10
2022-11-29T03:45:34.956Z,5.10
2022-11-29T03:48:22.051Z,5.10
2022-11-29T03:50:52.990Z,5.10
2022-11-29T03:53:54.910Z,5.00
2022-11-29T03:56:34.107Z,5.00
2022-11-29T03:59:38.772Z,5.00
2022-11-29T04:02:36.707Z,5.00
2022-11-29T04:05:32.855Z,4.90
2022-11-29T04:08:17.666Z,5.00
2022-11-29T04:11:16.927Z,4.80
2022-11-29T04:14:02.451Z,4.90
2022-11-29T04:17:01.838Z,4.90
2022-11-29T04:19:49.156Z,4.90
2022-11-29T04:22:35.226Z,4.90
2022-11-29T04:25:34.407Z,4.90
2022-11-29T04:28:21.451Z,4.90
2022-11-29T04:31:10.360Z,5.00
2022-11-29T04:33:58.381Z,5.00
2022-11-29T04:36:37.306Z,5.10
2022-11-29T04:39:27.676Z,5.10
2022-11-29T04:42:21.862Z,4.90
2022-11-29T04:45:07.353Z,4.90
2022-11-29T04:47:49.013Z,4.90
2022-11-29T04:50:47.909Z,4.90
2022-11-29T04:53:14.821Z,4.90
2022-11-29T04:55:53.449Z,5.00
2022-11-29T04:58:38.503Z,5.10
2022-11-29T05:01:29.713Z,5.10
2022-11-29T05:04:21.327Z,5.00
2022-11-29T05:07:20.516Z,5.00
2022-11-29T05:09:47.470Z,5.00
2022-11-29T05:12:19.323Z,4.90
2022-11-29T05:15:10.248Z,5.00
2022-11-29T05:17:53.112Z,4.90
2022-11-29T05:20:38.983Z,4.90
2022-11-29T05:23:40.791Z,4.90
2022-11-29T05:26:32.609Z,4.90
2022-11-29T05:29:10.312Z,4.80
2022-11-29T05:31:55.755Z,4.80
2022-11-29T05:35:00.875Z,4.70
2022-11-29T05:37:54.111Z,4.70
2022-11-29T05:40:45.797Z,4.90
2022-11-29T05:43:33.002Z,5.00
2022-11-29T05:46:09.294Z,5.00
2022-11-29T05:49:00.220Z,5.10
2022-11-29T05:51:42.209Z,5.00
2022-11-29T05:54:27.295Z,5.00
2022-11-29T05:57:03.120Z,5.10
2022-11-29T05:59:31.061Z,5.10
2022-11-29T06:02:16.216Z,5.00
2022-11-29T06:04:51.539Z,5.10
2022-11-29T06:07:29.049Z,5.10
2022-11-29T06:10:11.665Z,5.00
2022-11-29T06:12:39.102Z,4.90
2022-11-29T06:15:41.137Z,5.00
2022-11-29T06:18:19.160Z,4.90
2022-11-29T06:20:54.889Z,4.80
2022-11-29T06:23:41.607Z,4.80
2022-11-29T06:26:11.434Z,4.70
2022-11-29T06:29:22.230Z,4.70
2022-11-29T06:32:13.165Z,4.70
2022-11-29T06:34:54.527Z,4.70
2022-11-29T06:37:31.488Z,4.60
2022-11-29T06:39:58.675Z,4.60
2022-11-29T06:42:25.633Z,4.60
2022-11-29T06:44:52.964Z,4.60
2022-11-29T06:47:32.852Z,4.60
2022-11-29T06:50:26.897Z,4.60
2022-11-29T06:53:33.824Z,4.50
2022-11-29T06:56:22.390Z,4.50
2022-11-29T06:58:52.326Z,4.60
2022-11-29T07:01:30.607Z,4.70
2022-11-29T07:04:26.593Z,4.70
2022-11-29T07:06:53.839Z,4.60
2022-11-29T07:09:25.604Z,4.70
2022-11-29T07:11:52.881Z,4.90
2022-11-29T07:14:20.194Z,4.90
2022-11-29T07:17:10.049Z,4.90
2022-11-29T07:20:21.046Z,4.80
2022-11-29T07:22:53.701Z,4.70
2022-11-29T07:25:42.209Z,4.70
2022-11-29T07:28:38.048Z,4.70
2022-11-29T07:31:34.206Z,4.70
2022-11-29T07:34:13.252Z,4.60
2022-11-29T07:37:15.723Z,4.60
2022-11-29T07:39:47.893Z,4.80
2022-11-29T07:42:27.063Z,4.90
2022-11-29T07:45:11.485Z,5.20
2022-11-29T07:47:38.497Z,5.30
2022-11-29T07:50:06.078Z,5.20
2022-11-29T07:52:33.943Z,5.50
2022-11-29T07:55:01.573Z,5.20
2022-11-29T07:57:28.569Z,5.20
2022-11-29T07:59:55.522Z,5.20
2022-11-29T08:02:30.281Z,5.20
2022-11-29T08:04:57.596Z,5.00
2022-11-29T08:07:24.735Z,4.90
2022-11-29T08:09:51.868Z,4.90
2022-11-29T08:12:18.919Z,5.00
2022-11-29T08:14:46.088Z,5.00
2022-11-29T08:17:13.230Z,4.90
2022-11-29T08:19:40.171Z,4.80
2022-11-29T08:22:07.118Z,4.90
2022-11-29T08:24:34.133Z,4.90
2022-11-29T08:27:01.359Z,4.80
2022-11-29T08:29:28.380Z,4.80
2022-11-29T08:31:55.919Z,4.70
2022-11-29T08:34:24.079Z,4.80
2022-11-29T08:36:51.651Z,4.70
2022-11-29T08:39:18.588Z,4.70
2022-11-29T08:41:45.534Z,4.70
2022-11-29T08:44:12.492Z,4.80
2022-11-29T08:46:57.851Z,4.80
2022-11-29T08:49:24.807Z,4.70
2022-11-29T08:52:15.903Z,4.80
2022-11-29T08:54:43.444Z,4.80
2022-11-29T08:57:39.508Z,4.70
2022-11-29T08:59:57.765Z,4.80
2022-11-29T09:02:24.734Z,4.80
2022-11-29T09:04:51.691Z,4.80
2022-11-29T09:07:18.748Z,5.00
2022-11-29T09:09:45.754Z,4.90
2022-11-29T09:12:12.660Z,5.00
2022-11-29T09:14:39.655Z,5.00
2022-11-29T09:17:06.539Z,4.90
2022-11-29T09:19:33.436Z,4.90
2022-11-29T09:22:05.019Z,5.00
2022-11-29T09:24:37.519Z,5.00
2022-11-29T09:27:05.066Z,4.90
2022-11-29T09:29:32.138Z,5.00
2022-11-29T09:31:59.199Z,5.00
2022-11-29T09:34:26.887Z,5.10
2022-11-29T09:36:54.268Z,5.00
2022-11-29T09:39:21.764Z,4.90
2022-11-29T09:41:56.958Z,5.00
2022-11-29T09:44:41.965Z,5.00
2022-11-29T09:47:33.916Z,5.00
2022-11-29T09:50:34.266Z,5.00
2022-11-29T09:53:04.333Z,4.90
2022-11-29T09:55:34.358Z,4.90
2022-11-29T09:58:03.901Z,4.90
2022-11-29T10:00:35.834Z,4.80
2022-11-29T10:03:12.845Z,4.80
2022-11-29T10:05:47.049Z,4.90
2022-11-29T10:08:27.133Z,5.00
2022-11-29T10:11:01.793Z,5.40
2022-11-29T10:13:35.639Z,5.30
2022-11-29T10:16:51.846Z,5.40
2022-11-29T10:19:43.167Z,5.40
2022-11-29T10:22:41.564Z,5.40
2022-11-29T10:25:12.678Z,5.50
2022-11-29T10:27:40.798Z,5.50
2022-11-29T10:30:15.283Z,5.50
2022-11-29T10:32:48.861Z,5.50
2022-11-29T10:35:19.407Z,5.40
2022-11-29T10:38:07.758Z,5.50
2022-11-29T10:40:37.698Z,5.60
2022-11-29T10:43:04.729Z,5.50
2022-11-29T10:45:40.547Z,5.50
2022-11-29T10:48:14.594Z,5.20
2022-11-29T10:50:47.150Z,5.20
2022-11-29T10:53:17.099Z,5.30
2022-11-29T10:56:07.026Z,5.30
2022-11-29T10:58:34.768Z,5.40
2022-11-29T11:01:07.295Z,5.40
2022-11-29T11:03:43.108Z,5.30
2022-11-29T11:06:18.667Z,5.10
2022-11-29T11:08:57.187Z,5.00
2022-11-29T11:11:33.425Z,5.10
2022-11-29T11:14:34.621Z,5.20
2022-11-29T11:17:27.573Z,5.30
2022-11-29T11:20:08.395Z,5.20
2022-11-29T11:22:39.961Z,5.10
2022-11-29T11:25:25.549Z,5.20
2022-11-29T11:27:53.122Z,5.00
2022-11-29T11:30:26.106Z,5.00
2022-11-29T11:33:20.225Z,5.00
2022-11-29T11:36:05.871Z,5.00
2022-11-29T11:38:35.187Z,5.00
2022-11-29T11:41:23.235Z,5.00
2022-11-29T11:44:00.789Z,5.10
2022-11-29T11:46:48.219Z,5.10
2022-11-29T11:49:45.647Z,5.20
2022-11-29T11:52:46.137Z,5.10
2022-11-29T11:55:43.032Z,5.10
2022-11-29T11:58:12.814Z,5.00
2022-11-29T12:01:03.587Z,5.00
2022-11-29T12:03:55.744Z,5.00
2022-11-29T12:06:56.356Z,5.00
2022-11-29T12:09:46.523Z,5.00
2022-11-29T12:12:37.329Z,4.90
2022-11-29T12:15:18.974Z,4.90
2022-11-29T12:18:12.960Z,5.00
2022-11-29T12:20:48.781Z,4.90
2022-11-29T12:23:15.748Z,4.90
2022-11-29T12:26:00.369Z,4.90
2022-11-29T12:28:34.193Z,4.90
2022-11-29T12:31:28.670Z,5.00
2022-11-29T12:34:29.401Z,4.90
2022-11-29T12:37:05.355Z,4.90
2022-11-29T12:39:41.583Z,4.90
2022-11-29T12:42:17.229Z,4.90
2022-11-29T12:45:14.444Z,4.80
2022-11-29T12:48:23.739Z,4.90
2022-11-29T12:50:59.479Z,5.00
2022-11-29T12:54:05.343Z,5.00
2022-11-29T12:57:09.150Z,5.00
2022-11-29T13:00:07.343Z,5.00
2022-11-29T13:03:13.045Z,5.00
2022-11-29T13:06:19.281Z,5.00
2022-11-29T13:09:13.893Z,4.90
2022-11-29T13:11:49.589Z,4.90
2022-11-29T13:14:42.725Z,4.90
2022-11-29T13:17:22.382Z,4.90
2022-11-29T13:20:04.303Z,4.90
2022-11-29T13:23:11.298Z,4.90
2022-11-29T13:25:42.022Z,4.90
2022-11-29T13:28:23.410Z,4.90
2022-11-29T13:30:51.102Z,4.80
2022-11-29T13:33:24.890Z,4.80
2022-11-29T13:36:18.214Z,4.70
2022-11-29T13:38:59.903Z,4.70
2022-11-29T13:41:46.447Z,4.80
2022-11-29T13:44:27.792Z,4.80
2022-11-29T13:47:13.910Z,4.70
2022-11-29T13:49:58.189Z,4.80
2022-11-29T13:52:32.979Z,4.80
2022-11-29T13:55:12.028Z,4.80
2022-11-29T13:58:21.979Z,4.70
2022-11-29T14:00:51.808Z,4.60
2022-11-29T14:03:26.079Z,4.70
2022-11-29T14:05:54.665Z,4.70
2022-11-29T14:12:00.169Z,4.60
2022-11-29T14:14:56.069Z,4.60
2022-11-29T14:17:59.240Z,4.60
2022-11-29T14:20:28.026Z,4.50
2022-11-29T14:23:15.988Z,4.50
2022-11-29T14:25:54.997Z,4.40
2022-11-29T14:28:21.919Z,4.40
2022-11-29T14:30:57.246Z,4.40
2022-11-29T14:33:45.776Z,4.40
2022-11-29T14:36:17.577Z,4.50
2022-11-29T14:39:10.393Z,4.40
2022-11-29T14:41:56.861Z,4.40
2022-11-29T14:44:32.296Z,4.40
2022-11-29T14:47:07.874Z,4.50
2022-11-29T14:49:43.544Z,4.50
2022-11-29T14:52:18.439Z,4.40
2022-11-29T14:54:58.932Z,4.40
2022-11-29T14:57:47.494Z,4.40
2022-11-29T15:00:44.074Z,4.40
2022-11-29T15:03:17.067Z,4.30
2022-11-29T15:05:47.164Z,4.30
2022-11-29T15:08:35.066Z,4.30
2022-11-29T15:11:22.353Z,4.30
2022-11-29T15:13:59.206Z,4.30
2022-11-29T15:16:41.072Z,4.30
2022-11-29T15:19:40.752Z,4.40
2022-11-29T15:22:17.566Z,4.30
2022-11-29T15:25:02.811Z,4.30
2022-11-29T15:27:30.114Z,4.30
2022-11-29T15:29:59.072Z,4.30
2022-11-29T15:32:32.717Z,4.30
2022-11-29T15:35:01.023Z,4.30
2022-11-29T15:37:37.414Z,4.30
2022-11-29T15:40:10.625Z,4.20
2022-11-29T15:42:45.881Z,4.10
2022-11-29T15:45:35.232Z,4.20
2022-11-29T15:48:11.745Z,4.10
2022-11-29T15:50:42.065Z,4.10
2022-11-29T15:53:16.720Z,4.20
2022-11-29T15:55:44.740Z,4.20
2022-11-29T15:58:14.362Z,4.20
2022-11-29T16:00:43.942Z,4.10
2022-11-29T16:03:25.575Z,4.10
2022-11-29T16:06:01.662Z,4.10
2022-11-29T16:08:33.418Z,4.10
2022-11-29T16:11:00.955Z,4.20
2022-11-29T16:13:41.761Z,4.20
2022-11-29T16:16:28.817Z,4.10
2022-11-29T16:19:07.836Z,4.30
2022-11-29T16:21:34.849Z,4.30
2022-11-29T16:24:19.438Z,4.30
2022-11-29T16:26:49.801Z,4.30
2022-11-29T16:29:29.234Z,4.30
2022-11-29T16:31:56.563Z,4.30
2022-11-29T16:34:33.846Z,4.30
2022-11-29T16:37:06.653Z,4.30
2022-11-29T16:39:37.836Z,4.40
2022-11-29T16:42:25.781Z,4.30
2022-11-29T16:44:54.412Z,4.30
2022-11-29T16:47:22.523Z,4.30
2022-11-29T16:50:13.047Z,4.30
2022-11-29T16:52:40.054Z,4.30
2022-11-29T16:55:07.286Z,4.30
2022-11-29T16:57:34.876Z,4.30
2022-11-29T17:00:01.984Z,4.30
2022-11-29T17:02:30.097Z,4.30
2022-11-29T17:04:58.190Z,4.30
2022-11-29T17:07:32.155Z,4.30
2022-11-29T17:09:59.764Z,4.40
2022-11-29T17:12:26.778Z,4.50
2022-11-29T17:14:56.262Z,4.40
2022-11-29T17:17:23.468Z,4.40
2022-11-29T17:19:50.944Z,4.40
2022-11-29T17:22:18.020Z,4.40
2022-11-29T17:24:48.248Z,4.40
2022-11-29T17:27:15.797Z,4.50
2022-11-29T17:29:42.775Z,4.50
2022-11-29T17:32:09.744Z,4.50
2022-11-29T17:34:36.695Z,4.40
2022-11-29T17:37:03.695Z,4.40
2022-11-29T17:39:30.645Z,4.30
2022-11-29T17:41:57.580Z,4.30
2022-11-29T17:44:24.619Z,4.30
2022-11-29T17:46:51.536Z,4.30
2022-11-29T17:49:18.938Z,4.40
2022-11-29T17:51:53.800Z,4.40
2022-11-29T17:54:22.693Z,4.50
2022-11-29T17:56:50.045Z,4.50
2022-11-29T17:59:17.210Z,4.50
2022-11-29T18:01:47.207Z,4.50
2022-11-29T18:04:14.374Z,4.40
2022-11-29T18:06:41.501Z,4.40
2022-11-29T18:09:11.130Z,4.30
2022-11-29T18:11:47.465Z,4.30
2022-11-29T18:14:22.616Z,4.30
2022-11-29T18:16:50.176Z,4.30
2022-11-29T18:19:19.684Z,4.30
2022-11-29T18:21:47.363Z,4.40
2022-11-29T18:24:14.507Z,4.40
2022-11-29T18:26:42.030Z,4.40
2022-11-29T18:29:09.867Z,4.40
2022-11-29T18:31:39.822Z,4.40
2022-11-29T18:34:09.776Z,4.40
2022-11-29T18:36:40.278Z,4.40
2022-11-29T18:39:11.069Z,4.40
2022-11-29T18:41:38.589Z,4.30
2022-11-29T18:44:11.822Z,4.40
2022-11-29T18:46:39.455Z,4.40
2022-11-29T18:49:08.731Z,4.50
2022-11-29T18:51:36.922Z,4.40
2022-11-29T18:54:05.003Z,4.40
2022-11-29T18:56:34.528Z,4.50
2022-11-29T18:59:08.800Z,4.40
2022-11-29T19:01:40.634Z,4.30
2022-11-29T19:04:09.810Z,4.30
2022-11-29T19:06:40.047Z,4.30
2022-11-29T19:09:11.484Z,4.30
2022-11-29T19:11:38.584Z,4.20
2022-11-29T19:14:11.829Z,4.30
2022-11-29T19:16:42.274Z,4.30
2022-11-29T19:19:09.381Z,4.20
2022-11-29T19:21:36.455Z,4.20
2022-11-29T19:24:07.707Z,4.20
2022-11-29T19:26:34.969Z,4.20
2022-11-29T19:29:02.183Z,4.20
2022-11-29T19:31:29.607Z,4.30
2022-11-29T19:33:57.686Z,4.40
2022-11-29T19:36:26.960Z,4.30
2022-11-29T19:38:54.740Z,4.30
2022-11-29T19:41:23.562Z,4.30
2022-11-29T19:43:50.839Z,4.30
2022-11-29T19:46:30.211Z,4.40
2022-11-29T19:48:59.296Z,4.40
2022-11-29T19:51:27.345Z,4.40
2022-11-29T19:53:59.870Z,4.40
2022-11-29T19:56:28.359Z,4.40
2022-11-29T19:58:55.529Z,4.40
2022-11-29T20:01:25.404Z,4.40
2022-11-29T20:03:53.038Z,4.40
2022-11-29T20:06:20.505Z,4.30
2022-11-29T20:08:47.993Z,4.30
2022-11-29T20:11:20.452Z,4.30
2022-11-29T20:13:58.392Z,4.20
2022-11-29T20:16:26.637Z,4.20
2022-11-29T20:18:54.371Z,4.20
2022-11-29T20:21:24.429Z,4.20
2022-11-29T20:23:56.416Z,4.30
2022-11-29T20:26:24.205Z,4.30
2022-11-29T20:28:51.383Z,4.40
2022-11-29T20:31:22.832Z,4.40
2022-11-29T20:33:52.649Z,4.50
2022-11-29T20:36:38.411Z,4.50
2022-11-29T20:39:11.713Z,4.60
2022-11-29T20:41:54.341Z,4.60
2022-11-29T20:44:43.551Z,4.60
2022-11-29T20:47:17.457Z,4.60
2022-11-29T20:49:45.018Z,4.60
2022-11-29T20:52:19.511Z,4.60
2022-11-29T20:54:46.635Z,4.60
2022-11-29T20:57:13.577Z,4.60
2022-11-29T20:59:40.484Z,4.60
2022-11-29T21:02:07.399Z,4.70
2022-11-29T21:04:34.454Z,4.60
2022-11-29T21:07:01.416Z,4.60
2022-11-29T21:09:28.620Z,4.70
2022-11-29T21:11:55.959Z,4.70
2022-11-29T21:14:23.327Z,4.70
2022-11-29T21:16:50.424Z,4.70
2022-11-29T21:19:24.219Z,4.70
2022-11-29T21:22:21.489Z,4.70
2022-11-29T21:24:54.054Z,4.70
2022-11-29T21:27:28.394Z,4.70
2022-11-29T21:29:55.913Z,4.70
2022-11-29T21:32:25.743Z,4.70
2022-11-29T21:34:53.271Z,4.70
2022-11-29T21:37:25.249Z,4.70
2022-11-29T21:39:53.513Z,4.70
2022-11-29T21:42:20.941Z,4.70
2022-11-29T21:44:48.152Z,4.60
2022-11-29T21:47:15.413Z,4.70
2022-11-29T21:49:42.310Z,4.60
2022-11-29T21:52:09.208Z,4.60
2022-11-29T21:54:36.192Z,4.60
2022-11-29T21:57:03.176Z,4.70
2022-11-29T21:59:30.119Z,4.70
2022-11-29T22:01:57.413Z,4.70
2022-11-29T22:04:25.326Z,4.70
2022-11-29T22:06:52.279Z,4.70
2022-11-29T22:09:19.294Z,4.70
2022-11-29T22:11:46.268Z,4.70
2022-11-29T22:14:16.044Z,4.70
2022-11-29T22:16:52.345Z,4.70
2022-11-29T22:19:24.667Z,4.80
2022-11-29T22:22:03.426Z,4.80
2022-11-29T22:24:36.531Z,4.80
2022-11-29T22:27:14.305Z,4.80
2022-11-29T22:29:46.096Z,4.80
2022-11-29T22:32:14.222Z,4.80
2022-11-29T22:34:44.125Z,4.80
2022-11-29T22:37:13.399Z,4.80
2022-11-29T22:39:46.741Z,4.70
2022-11-29T22:42:15.248Z,4.70
2022-11-29T22:44:44.054Z,4.70
2022-11-29T22:47:11.113Z,4.70
2022-11-29T22:49:38.070Z,4.70
2022-11-29T22:52:05.113Z,4.70
2022-11-29T22:54:32.093Z,4.70
2022-11-29T22:56:59.522Z,4.70
2022-11-29T22:59:26.404Z,4.70
2022-11-29T23:01:53.394Z,4.70
2022-11-29T23:04:20.443Z,4.70
2022-11-29T23:06:47.405Z,4.70
2022-11-29T23:09:17.448Z,4.70
2022-11-29T23:11:46.048Z,4.70
2022-11-29T23:14:13.533Z,4.70
2022-11-29T23:16:40.655Z,4.80
2022-11-29T23:19:07.668Z,4.80
2022-11-29T23:21:37.034Z,4.80
2022-11-29T23:24:04.395Z,4.70
2022-11-29T23:26:36.468Z,4.70
2022-11-29T23:29:05.578Z,4.70
2022-11-29T23:31:33.120Z,4.80
2022-11-29T23:34:00.312Z,5.00
2022-11-29T23:36:27.199Z,5.10
2022-11-29T23:38:54.149Z,5.20
2022-11-29T23:41:21.403Z,5.40
2022-11-29T23:43:48.307Z,5.50
2022-11-29T23:46:20.588Z,5.50
2022-11-29T23:48:48.418Z,5.50
2022-11-29T23:51:16.393Z,5.40
2022-11-29T23:53:43.665Z,5.40
2022-11-29T23:56:14.540Z,5.30
2022-11-29T23:58:42.093Z,5.20
